sensor_id;sensor_type;location;lat;lon;timestamp;temperature;humidity
25410;DHT22;13339;50.840;4.346;2023-12-04T00:02:14;6.40;99.90
25410;DHT22;13339;50.840;4.346;2023-12-04T00:04:40;6.40;99.90
25410;DHT22;13339;50.840;4.346;2023-12-04T00:07:05;6.40;99.90
25410;DHT22;13339;50.840;4.346;2023-12-04T00:09:31;6.30;99.90
25410;DHT22;13339;50.840;4.346;2023-12-04T00:11:56;6.30;99.90
25410;DHT22;13339;50.840;4.346;2023-12-04T00:14:22;6.30;99.90
25410;DHT22;13339;50.840;4.346;2023-12-04T00:16:48;6.30;99.90
25410;DHT22;13339;50.840;4.346;2023-12-04T00:19:13;6.30;99.90
25410;DHT22;13339;50.840;4.346;2023-12-04T00:21:39;6.20;99.90
25410;DHT22;13339;50.840;4.346;2023-12-04T00:24:05;6.00;99.90
25410;DHT22;13339;50.840;4.346;2023-12-04T00:26:30;5.90;99.90
25410;DHT22;13339;50.840;4.346;2023-12-04T00:28:56;5.90;99.90
25410;DHT22;13339;50.840;4.346;2023-12-04T00:31:22;5.90;99.90
25410;DHT22;13339;50.840;4.346;2023-12-04T00:33:47;5.90;99.90
25410;DHT22;13339;50.840;4.346;2023-12-04T00:36:13;6.00;99.90
25410;DHT22;13339;50.840;4.346;2023-12-04T00:38:40;6.10;99.90
25410;DHT22;13339;50.840;4.346;2023-12-04T00:41:06;6.20;99.90
25410;DHT22;13339;50.840;4.346;2023-12-04T00:43:31;6.30;99.90
25410;DHT22;13339;50.840;4.346;2023-12-04T00:45:57;6.10;99.90
25410;DHT22;13339;50.840;4.346;2023-12-04T00:48:23;6.00;99.90
25410;DHT22;13339;50.840;4.346;2023-12-04T00:50:48;6.10;99.90
25410;DHT22;13339;50.840;4.346;2023-12-04T00:53:14;6.10;99.90
25410;DHT22;13339;50.840;4.346;2023-12-04T00:55:40;6.10;99.90
25410;DHT22;13339;50.840;4.346;2023-12-04T00:58:05;6.00;99.90
25410;DHT22;13339;50.840;4.346;2023-12-04T01:00:31;6.10;99.90
25410;DHT22;13339;50.840;4.346;2023-12-04T01:02:56;6.20;99.90
25410;DHT22;13339;50.840;4.346;2023-12-04T01:05:22;6.20;99.90
25410;DHT22;13339;50.840;4.346;2023-12-04T01:07:48;6.20;99.90
25410;DHT22;13339;50.840;4.346;2023-12-04T01:10:13;6.10;99.90
25410;DHT22;13339;50.840;4.346;2023-12-04T01:12:39;6.00;99.90
25410;DHT22;13339;50.840;4.346;2023-12-04T01:15:05;5.90;99.90
25410;DHT22;13339;50.840;4.346;2023-12-04T01:17:31;5.80;99.90
25410;DHT22;13339;50.840;4.346;2023-12-04T01:19:56;5.90;99.90
25410;DHT22;13339;50.840;4.346;2023-12-04T01:22:23;5.80;99.90
25410;DHT22;13339;50.840;4.346;2023-12-04T01:24:48;5.60;99.90
25410;DHT22;13339;50.840;4.346;2023-12-04T01:27:14;5.70;99.90
25410;DHT22;13339;50.840;4.346;2023-12-04T01:29:40;5.80;99.90
25410;DHT22;13339;50.840;4.346;2023-12-04T01:32:06;6.00;99.90
25410;DHT22;13339;50.840;4.346;2023-12-04T01:34:31;6.00;99.90
25410;DHT22;13339;50.840;4.346;2023-12-04T01:36:57;6.00;99.90
25410;DHT22;13339;50.840;4.346;2023-12-04T01:39:23;5.80;99.90
25410;DHT22;13339;50.840;4.346;2023-12-04T01:41:48;5.90;99.90
25410;DHT22;13339;50.840;4.346;2023-12-04T01:44:14;6.10;99.90
25410;DHT22;13339;50.840;4.346;2023-12-04T01:46:41;6.00;99.90
25410;DHT22;13339;50.840;4.346;2023-12-04T01:49:07;5.80;99.90
25410;DHT22;13339;50.840;4.346;2023-12-04T01:51:33;5.70;99.90
25410;DHT22;13339;50.840;4.346;2023-12-04T01:54:02;5.70;99.90
25410;DHT22;13339;50.840;4.346;2023-12-04T01:56:29;5.70;99.90
25410;DHT22;13339;50.840;4.346;2023-12-04T01:58:55;5.60;99.90
25410;DHT22;13339;50.840;4.346;2023-12-04T02:01:22;5.70;99.90
25410;DHT22;13339;50.840;4.346;2023-12-04T02:03:49;5.70;99.90
25410;DHT22;13339;50.840;4.346;2023-12-04T02:06:16;5.60;99.90
25410;DHT22;13339;50.840;4.346;2023-12-04T02:08:42;5.60;99.90
25410;DHT22;13339;50.840;4.346;2023-12-04T02:11:08;5.60;99.90
25410;DHT22;13339;50.840;4.346;2023-12-04T02:13:33;5.50;99.90
25410;DHT22;13339;50.840;4.346;2023-12-04T02:16:03;5.60;99.90
25410;DHT22;13339;50.840;4.346;2023-12-04T02:18:32;5.70;99.90
25410;DHT22;13339;50.840;4.346;2023-12-04T02:20:59;5.70;99.90
25410;DHT22;13339;50.840;4.346;2023-12-04T02:23:25;5.60;99.90
25410;DHT22;13339;50.840;4.346;2023-12-04T02:25:52;5.60;99.90
25410;DHT22;13339;50.840;4.346;2023-12-04T02:28:22;5.70;99.90
25410;DHT22;13339;50.840;4.346;2023-12-04T02:30:49;5.60;99.90
25410;DHT22;13339;50.840;4.346;2023-12-04T02:33:17;5.60;99.90
25410;DHT22;13339;50.840;4.346;2023-12-04T02:35:44;5.60;99.90
25410;DHT22;13339;50.840;4.346;2023-12-04T02:38:10;5.50;99.90
25410;DHT22;13339;50.840;4.346;2023-12-04T02:40:37;5.40;99.90
25410;DHT22;13339;50.840;4.346;2023-12-04T02:43:02;5.30;99.90
25410;DHT22;13339;50.840;4.346;2023-12-04T02:45:28;5.40;99.90
25410;DHT22;13339;50.840;4.346;2023-12-04T02:47:54;5.50;99.90
25410;DHT22;13339;50.840;4.346;2023-12-04T02:50:20;5.50;99.90
25410;DHT22;13339;50.840;4.346;2023-12-04T02:52:45;5.50;99.90
25410;DHT22;13339;50.840;4.346;2023-12-04T02:55:11;5.50;99.90
25410;DHT22;13339;50.840;4.346;2023-12-04T02:57:36;5.40;99.90
25410;DHT22;13339;50.840;4.346;2023-12-04T03:00:02;5.40;99.90
25410;DHT22;13339;50.840;4.346;2023-12-04T03:02:29;5.40;99.90
25410;DHT22;13339;50.840;4.346;2023-12-04T03:04:55;5.50;99.90
25410;DHT22;13339;50.840;4.346;2023-12-04T03:07:20;5.60;99.90
25410;DHT22;13339;50.840;4.346;2023-12-04T03:09:46;5.70;99.90
25410;DHT22;13339;50.840;4.346;2023-12-04T03:12:12;5.80;99.90
25410;DHT22;13339;50.840;4.346;2023-12-04T03:14:38;5.90;99.90
25410;DHT22;13339;50.840;4.346;2023-12-04T03:17:03;5.90;99.90
25410;DHT22;13339;50.840;4.346;2023-12-04T03:19:29;5.90;99.90
25410;DHT22;13339;50.840;4.346;2023-12-04T03:21:54;6.00;99.90
25410;DHT22;13339;50.840;4.346;2023-12-04T03:24:20;6.10;99.90
25410;DHT22;13339;50.840;4.346;2023-12-04T03:26:46;6.10;99.90
25410;DHT22;13339;50.840;4.346;2023-12-04T03:29:11;6.00;99.90
25410;DHT22;13339;50.840;4.346;2023-12-04T03:31:38;6.00;99.90
25410;DHT22;13339;50.840;4.346;2023-12-04T03:34:04;6.20;99.90
25410;DHT22;13339;50.840;4.346;2023-12-04T03:36:29;6.30;99.90
25410;DHT22;13339;50.840;4.346;2023-12-04T03:38:55;6.40;99.90
25410;DHT22;13339;50.840;4.346;2023-12-04T03:41:21;6.50;99.90
25410;DHT22;13339;50.840;4.346;2023-12-04T03:43:48;6.30;99.90
25410;DHT22;13339;50.840;4.346;2023-12-04T03:46:14;6.40;99.90
25410;DHT22;13339;50.840;4.346;2023-12-04T03:48:39;6.40;99.90
25410;DHT22;13339;50.840;4.346;2023-12-04T03:51:05;6.40;99.90
25410;DHT22;13339;50.840;4.346;2023-12-04T03:53:31;6.40;99.90
25410;DHT22;13339;50.840;4.346;2023-12-04T03:55:58;6.30;99.90
25410;DHT22;13339;50.840;4.346;2023-12-04T03:58:24;6.30;99.90
25410;DHT22;13339;50.840;4.346;2023-12-04T04:00:50;6.20;99.90
25410;DHT22;13339;50.840;4.346;2023-12-04T04:03:15;6.10;99.90
25410;DHT22;13339;50.840;4.346;2023-12-04T04:05:41;6.10;99.90
25410;DHT22;13339;50.840;4.346;2023-12-04T04:08:07;6.00;99.90
25410;DHT22;13339;50.840;4.346;2023-12-04T04:10:33;6.10;99.90
25410;DHT22;13339;50.840;4.346;2023-12-04T04:12:59;6.10;99.90
25410;DHT22;13339;50.840;4.346;2023-12-04T04:15:25;6.10;99.90
25410;DHT22;13339;50.840;4.346;2023-12-04T04:17:51;6.20;99.90
25410;DHT22;13339;50.840;4.346;2023-12-04T04:20:17;6.30;99.90
25410;DHT22;13339;50.840;4.346;2023-12-04T04:22:43;6.40;99.90
25410;DHT22;13339;50.840;4.346;2023-12-04T04:25:08;6.40;99.90
25410;DHT22;13339;50.840;4.346;2023-12-04T04:27:34;6.50;99.90
25410;DHT22;13339;50.840;4.346;2023-12-04T04:30:01;6.60;99.90
25410;DHT22;13339;50.840;4.346;2023-12-04T04:32:26;6.60;99.90
25410;DHT22;13339;50.840;4.346;2023-12-04T04:34:52;6.60;99.90
25410;DHT22;13339;50.840;4.346;2023-12-04T04:37:19;6.70;99.90
25410;DHT22;13339;50.840;4.346;2023-12-04T04:39:44;6.70;99.90
25410;DHT22;13339;50.840;4.346;2023-12-04T04:42:10;6.70;99.90
25410;DHT22;13339;50.840;4.346;2023-12-04T04:44:35;6.60;99.90
25410;DHT22;13339;50.840;4.346;2023-12-04T04:47:01;6.30;99.90
25410;DHT22;13339;50.840;4.346;2023-12-04T04:49:27;6.20;99.90
25410;DHT22;13339;50.840;4.346;2023-12-04T04:51:53;6.10;99.90
25410;DHT22;13339;50.840;4.346;2023-12-04T04:54:18;6.10;99.90
25410;DHT22;13339;50.840;4.346;2023-12-04T04:56:44;6.10;99.90
25410;DHT22;13339;50.840;4.346;2023-12-04T04:59:10;6.20;99.90
25410;DHT22;13339;50.840;4.346;2023-12-04T05:01:36;6.20;99.90
25410;DHT22;13339;50.840;4.346;2023-12-04T05:04:02;6.20;99.90
25410;DHT22;13339;50.840;4.346;2023-12-04T05:06:28;6.20;99.90
25410;DHT22;13339;50.840;4.346;2023-12-04T05:08:54;6.20;99.90
25410;DHT22;13339;50.840;4.346;2023-12-04T05:11:19;6.40;99.90
25410;DHT22;13339;50.840;4.346;2023-12-04T05:13:45;6.20;99.90
25410;DHT22;13339;50.840;4.346;2023-12-04T05:16:11;6.30;99.90
25410;DHT22;13339;50.840;4.346;2023-12-04T05:18:38;6.20;99.90
25410;DHT22;13339;50.840;4.346;2023-12-04T05:21:08;6.40;99.90
25410;DHT22;13339;50.840;4.346;2023-12-04T05:23:34;6.40;99.90
25410;DHT22;13339;50.840;4.346;2023-12-04T05:26:00;6.20;99.90
25410;DHT22;13339;50.840;4.346;2023-12-04T05:28:26;6.00;99.90
25410;DHT22;13339;50.840;4.346;2023-12-04T05:30:51;5.80;99.90
25410;DHT22;13339;50.840;4.346;2023-12-04T05:33:17;5.70;99.90
25410;DHT22;13339;50.840;4.346;2023-12-04T05:35:42;5.80;99.90
25410;DHT22;13339;50.840;4.346;2023-12-04T05:38:08;5.80;99.90
25410;DHT22;13339;50.840;4.346;2023-12-04T05:40:34;5.80;99.90
25410;DHT22;13339;50.840;4.346;2023-12-04T05:42:59;5.80;99.90
25410;DHT22;13339;50.840;4.346;2023-12-04T05:45:25;5.80;99.90
25410;DHT22;13339;50.840;4.346;2023-12-04T05:47:51;5.90;99.90
25410;DHT22;13339;50.840;4.346;2023-12-04T05:50:18;6.10;99.90
25410;DHT22;13339;50.840;4.346;2023-12-04T05:52:43;6.20;99.90
25410;DHT22;13339;50.840;4.346;2023-12-04T05:55:10;6.20;99.90
25410;DHT22;13339;50.840;4.346;2023-12-04T05:57:38;6.20;99.90
25410;DHT22;13339;50.840;4.346;2023-12-04T06:00:04;6.20;99.90
25410;DHT22;13339;50.840;4.346;2023-12-04T06:02:31;6.20;99.90
25410;DHT22;13339;50.840;4.346;2023-12-04T06:04:57;6.20;99.90
25410;DHT22;13339;50.840;4.346;2023-12-04T06:07:23;6.20;99.90
25410;DHT22;13339;50.840;4.346;2023-12-04T06:09:49;6.30;99.90
25410;DHT22;13339;50.840;4.346;2023-12-04T06:12:14;6.20;99.90
25410;DHT22;13339;50.840;4.346;2023-12-04T06:14:40;6.30;99.90
25410;DHT22;13339;50.840;4.346;2023-12-04T06:17:05;6.00;99.90
25410;DHT22;13339;50.840;4.346;2023-12-04T06:19:32;6.00;99.90
25410;DHT22;13339;50.840;4.346;2023-12-04T06:21:57;6.00;99.90
25410;DHT22;13339;50.840;4.346;2023-12-04T06:24:23;6.10;99.90
25410;DHT22;13339;50.840;4.346;2023-12-04T06:26:50;6.10;99.90
25410;DHT22;13339;50.840;4.346;2023-12-04T06:29:17;6.00;99.90
25410;DHT22;13339;50.840;4.346;2023-12-04T06:31:43;5.80;99.90
25410;DHT22;13339;50.840;4.346;2023-12-04T06:34:09;5.70;99.90
25410;DHT22;13339;50.840;4.346;2023-12-04T06:36:38;5.70;99.90
25410;DHT22;13339;50.840;4.346;2023-12-04T06:39:09;5.70;99.90
25410;DHT22;13339;50.840;4.346;2023-12-04T06:41:35;5.70;99.90
25410;DHT22;13339;50.840;4.346;2023-12-04T06:44:01;5.80;99.90
25410;DHT22;13339;50.840;4.346;2023-12-04T06:46:28;5.80;99.90
25410;DHT22;13339;50.840;4.346;2023-12-04T06:48:58;5.80;99.90
25410;DHT22;13339;50.840;4.346;2023-12-04T06:51:24;5.80;99.90
25410;DHT22;13339;50.840;4.346;2023-12-04T06:53:50;5.70;99.90
25410;DHT22;13339;50.840;4.346;2023-12-04T06:56:16;5.80;99.90
25410;DHT22;13339;50.840;4.346;2023-12-04T06:58:41;5.80;99.90
25410;DHT22;13339;50.840;4.346;2023-12-04T07:01:07;5.90;99.90
25410;DHT22;13339;50.840;4.346;2023-12-04T07:03:33;5.80;99.90
25410;DHT22;13339;50.840;4.346;2023-12-04T07:05:58;5.90;99.90
25410;DHT22;13339;50.840;4.346;2023-12-04T07:08:25;5.90;99.90
25410;DHT22;13339;50.840;4.346;2023-12-04T07:10:50;5.90;99.90
25410;DHT22;13339;50.840;4.346;2023-12-04T07:13:16;5.90;99.90
25410;DHT22;13339;50.840;4.346;2023-12-04T07:15:41;6.00;99.90
25410;DHT22;13339;50.840;4.346;2023-12-04T07:18:07;6.00;99.90
25410;DHT22;13339;50.840;4.346;2023-12-04T07:20:33;5.90;99.90
25410;DHT22;13339;50.840;4.346;2023-12-04T07:22:58;5.80;99.90
25410;DHT22;13339;50.840;4.346;2023-12-04T07:25:25;5.90;99.90
25410;DHT22;13339;50.840;4.346;2023-12-04T07:27:51;5.90;99.90
25410;DHT22;13339;50.840;4.346;2023-12-04T07:30:17;5.90;99.90
25410;DHT22;13339;50.840;4.346;2023-12-04T07:32:42;5.90;99.90
25410;DHT22;13339;50.840;4.346;2023-12-04T07:35:08;6.00;99.90
25410;DHT22;13339;50.840;4.346;2023-12-04T07:37:34;6.00;99.90
25410;DHT22;13339;50.840;4.346;2023-12-04T07:39:59;6.00;99.90
25410;DHT22;13339;50.840;4.346;2023-12-04T07:42:25;6.00;99.90
25410;DHT22;13339;50.840;4.346;2023-12-04T07:44:51;6.00;99.90
25410;DHT22;13339;50.840;4.346;2023-12-04T07:47:16;5.90;99.90
25410;DHT22;13339;50.840;4.346;2023-12-04T07:49:44;6.00;99.90
25410;DHT22;13339;50.840;4.346;2023-12-04T07:52:10;5.90;99.90
25410;DHT22;13339;50.840;4.346;2023-12-04T07:54:36;5.90;99.90
25410;DHT22;13339;50.840;4.346;2023-12-04T07:57:02;5.90;99.90
25410;DHT22;13339;50.840;4.346;2023-12-04T07:59:28;5.90;99.90
25410;DHT22;13339;50.840;4.346;2023-12-04T08:01:53;6.00;99.90
25410;DHT22;13339;50.840;4.346;2023-12-04T08:04:19;6.00;99.90
25410;DHT22;13339;50.840;4.346;2023-12-04T08:06:45;6.00;99.90
25410;DHT22;13339;50.840;4.346;2023-12-04T08:09:11;5.90;99.90
25410;DHT22;13339;50.840;4.346;2023-12-04T08:11:36;6.00;99.90
25410;DHT22;13339;50.840;4.346;2023-12-04T08:14:03;6.10;99.90
25410;DHT22;13339;50.840;4.346;2023-12-04T08:16:28;6.20;99.90
25410;DHT22;13339;50.840;4.346;2023-12-04T08:18:55;6.30;99.90
25410;DHT22;13339;50.840;4.346;2023-12-04T08:21:21;6.40;99.90
25410;DHT22;13339;50.840;4.346;2023-12-04T08:23:46;6.50;99.90
25410;DHT22;13339;50.840;4.346;2023-12-04T08:26:12;6.60;99.90
25410;DHT22;13339;50.840;4.346;2023-12-04T08:28:38;6.40;99.90
25410;DHT22;13339;50.840;4.346;2023-12-04T08:31:07;6.40;99.90
25410;DHT22;13339;50.840;4.346;2023-12-04T08:33:34;6.60;99.90
25410;DHT22;13339;50.840;4.346;2023-12-04T08:36:00;6.70;99.90
25410;DHT22;13339;50.840;4.346;2023-12-04T08:38:26;6.70;99.90
25410;DHT22;13339;50.840;4.346;2023-12-04T08:40:52;6.50;99.90
25410;DHT22;13339;50.840;4.346;2023-12-04T08:43:18;6.50;99.90
25410;DHT22;13339;50.840;4.346;2023-12-04T08:45:45;6.60;99.90
25410;DHT22;13339;50.840;4.346;2023-12-04T08:48:11;6.60;99.90
25410;DHT22;13339;50.840;4.346;2023-12-04T08:50:37;6.60;99.90
25410;DHT22;13339;50.840;4.346;2023-12-04T08:53:04;6.60;99.90
25410;DHT22;13339;50.840;4.346;2023-12-04T08:55:29;6.50;99.90
25410;DHT22;13339;50.840;4.346;2023-12-04T08:57:55;6.50;99.90
25410;DHT22;13339;50.840;4.346;2023-12-04T09:00:21;6.40;99.90
25410;DHT22;13339;50.840;4.346;2023-12-04T09:02:47;6.50;99.90
25410;DHT22;13339;50.840;4.346;2023-12-04T09:05:14;6.60;99.90
25410;DHT22;13339;50.840;4.346;2023-12-04T09:07:40;6.70;99.90
25410;DHT22;13339;50.840;4.346;2023-12-04T09:10:06;6.60;99.90
25410;DHT22;13339;50.840;4.346;2023-12-04T09:12:31;6.60;99.90
25410;DHT22;13339;50.840;4.346;2023-12-04T09:14:57;6.50;99.90
25410;DHT22;13339;50.840;4.346;2023-12-04T09:17:23;6.60;99.90
25410;DHT22;13339;50.840;4.346;2023-12-04T09:19:48;6.70;99.90
25410;DHT22;13339;50.840;4.346;2023-12-04T09:22:14;6.80;99.90
25410;DHT22;13339;50.840;4.346;2023-12-04T09:24:39;6.90;99.90
25410;DHT22;13339;50.840;4.346;2023-12-04T09:27:05;6.90;99.90
25410;DHT22;13339;50.840;4.346;2023-12-04T09:29:33;6.90;99.90
25410;DHT22;13339;50.840;4.346;2023-12-04T09:31:59;6.90;99.90
25410;DHT22;13339;50.840;4.346;2023-12-04T09:34:25;6.80;99.90
25410;DHT22;13339;50.840;4.346;2023-12-04T09:36:50;6.80;99.90
25410;DHT22;13339;50.840;4.346;2023-12-04T09:39:16;6.80;99.90
25410;DHT22;13339;50.840;4.346;2023-12-04T09:41:43;6.90;99.90
25410;DHT22;13339;50.840;4.346;2023-12-04T09:44:09;6.80;99.90
25410;DHT22;13339;50.840;4.346;2023-12-04T09:46:35;6.60;99.90
25410;DHT22;13339;50.840;4.346;2023-12-04T09:49:02;6.50;99.90
25410;DHT22;13339;50.840;4.346;2023-12-04T09:51:29;6.50;99.90
25410;DHT22;13339;50.840;4.346;2023-12-04T09:53:57;6.70;99.90
25410;DHT22;13339;50.840;4.346;2023-12-04T09:56:26;6.80;99.90
25410;DHT22;13339;50.840;4.346;2023-12-04T09:58:58;6.80;99.90
25410;DHT22;13339;50.840;4.346;2023-12-04T10:01:28;6.70;99.90
25410;DHT22;13339;50.840;4.346;2023-12-04T10:03:57;6.80;99.90
25410;DHT22;13339;50.840;4.346;2023-12-04T10:06:25;6.90;99.90
25410;DHT22;13339;50.840;4.346;2023-12-04T10:08:51;6.90;99.90
25410;DHT22;13339;50.840;4.346;2023-12-04T10:11:17;6.80;99.90
25410;DHT22;13339;50.840;4.346;2023-12-04T10:13:43;6.70;99.90
25410;DHT22;13339;50.840;4.346;2023-12-04T10:16:09;6.50;99.90
25410;DHT22;13339;50.840;4.346;2023-12-04T10:18:34;6.40;99.90
25410;DHT22;13339;50.840;4.346;2023-12-04T10:21:00;6.50;99.90
25410;DHT22;13339;50.840;4.346;2023-12-04T10:23:38;6.40;99.90
25410;DHT22;13339;50.840;4.346;2023-12-04T10:26:05;6.20;99.90
25410;DHT22;13339;50.840;4.346;2023-12-04T10:28:32;6.10;99.90
25410;DHT22;13339;50.840;4.346;2023-12-04T10:30:58;6.20;99.90
25410;DHT22;13339;50.840;4.346;2023-12-04T10:33:25;6.50;99.90
25410;DHT22;13339;50.840;4.346;2023-12-04T10:35:53;6.40;99.90
25410;DHT22;13339;50.840;4.346;2023-12-04T10:38:20;6.40;99.90
25410;DHT22;13339;50.840;4.346;2023-12-04T10:40:46;6.20;99.90
25410;DHT22;13339;50.840;4.346;2023-12-04T10:45:43;6.00;99.90
25410;DHT22;13339;50.840;4.346;2023-12-04T10:48:10;6.20;99.90
25410;DHT22;13339;50.840;4.346;2023-12-04T10:50:40;6.20;99.90
25410;DHT22;13339;50.840;4.346;2023-12-04T10:53:12;6.40;99.90
25410;DHT22;13339;50.840;4.346;2023-12-04T10:55:39;6.30;99.90
25410;DHT22;13339;50.840;4.346;2023-12-04T10:58:07;6.50;99.90
25410;DHT22;13339;50.840;4.346;2023-12-04T11:00:35;6.50;99.90
25410;DHT22;13339;50.840;4.346;2023-12-04T11:03:16;6.50;99.90
25410;DHT22;13339;50.840;4.346;2023-12-04T11:05:44;6.60;99.90
25410;DHT22;13339;50.840;4.346;2023-12-04T11:08:13;6.50;99.90
25410;DHT22;13339;50.840;4.346;2023-12-04T11:11:19;6.50;99.90
25410;DHT22;13339;50.840;4.346;2023-12-04T11:13:48;6.40;99.90
25410;DHT22;13339;50.840;4.346;2023-12-04T11:19:16;6.50;99.90
25410;DHT22;13339;50.840;4.346;2023-12-04T11:21:45;6.50;99.90
25410;DHT22;13339;50.840;4.346;2023-12-04T11:24:12;6.40;99.90
25410;DHT22;13339;50.840;4.346;2023-12-04T11:26:39;6.40;99.90
25410;DHT22;13339;50.840;4.346;2023-12-04T11:29:06;6.40;99.90
25410;DHT22;13339;50.840;4.346;2023-12-04T11:31:34;6.40;99.90
25410;DHT22;13339;50.840;4.346;2023-12-04T11:34:03;6.40;99.90
25410;DHT22;13339;50.840;4.346;2023-12-04T11:36:30;6.50;99.90
25410;DHT22;13339;50.840;4.346;2023-12-04T11:38:55;6.60;99.90
25410;DHT22;13339;50.840;4.346;2023-12-04T11:41:24;6.70;99.90
25410;DHT22;13339;50.840;4.346;2023-12-04T11:43:51;6.80;99.90
25410;DHT22;13339;50.840;4.346;2023-12-04T11:46:23;6.90;99.90
25410;DHT22;13339;50.840;4.346;2023-12-04T11:48:51;6.90;99.90
25410;DHT22;13339;50.840;4.346;2023-12-04T11:54:14;7.10;99.90
25410;DHT22;13339;50.840;4.346;2023-12-04T11:56:40;7.10;99.90
25410;DHT22;13339;50.840;4.346;2023-12-04T11:59:07;6.90;99.90
25410;DHT22;13339;50.840;4.346;2023-12-04T12:01:38;6.80;99.90
25410;DHT22;13339;50.840;4.346;2023-12-04T12:04:07;6.80;99.90
25410;DHT22;13339;50.840;4.346;2023-12-04T12:06:33;6.80;99.90
25410;DHT22;13339;50.840;4.346;2023-12-04T12:08:58;6.70;99.90
25410;DHT22;13339;50.840;4.346;2023-12-04T12:11:25;6.70;99.90
25410;DHT22;13339;50.840;4.346;2023-12-04T12:13:53;6.80;99.90
25410;DHT22;13339;50.840;4.346;2023-12-04T12:16:19;7.00;99.90
25410;DHT22;13339;50.840;4.346;2023-12-04T12:18:44;6.90;99.90
25410;DHT22;13339;50.840;4.346;2023-12-04T12:21:10;6.90;99.90
25410;DHT22;13339;50.840;4.346;2023-12-04T12:23:36;7.10;99.90
25410;DHT22;13339;50.840;4.346;2023-12-04T12:26:02;7.30;99.90
25410;DHT22;13339;50.840;4.346;2023-12-04T12:28:28;7.40;99.90
25410;DHT22;13339;50.840;4.346;2023-12-04T12:30:55;7.20;99.90
25410;DHT22;13339;50.840;4.346;2023-12-04T12:33:21;7.20;99.90
25410;DHT22;13339;50.840;4.346;2023-12-04T12:35:48;7.10;99.90
25410;DHT22;13339;50.840;4.346;2023-12-04T12:38:14;7.10;99.90
25410;DHT22;13339;50.840;4.346;2023-12-04T12:40:41;7.30;99.90
25410;DHT22;13339;50.840;4.346;2023-12-04T12:43:08;7.30;99.90
25410;DHT22;13339;50.840;4.346;2023-12-04T12:45:43;7.40;99.90
25410;DHT22;13339;50.840;4.346;2023-12-04T12:48:16;7.50;99.90
25410;DHT22;13339;50.840;4.346;2023-12-04T12:50:42;7.60;99.90
25410;DHT22;13339;50.840;4.346;2023-12-04T12:53:10;7.60;99.90
25410;DHT22;13339;50.840;4.346;2023-12-04T12:55:39;7.70;99.90
25410;DHT22;13339;50.840;4.346;2023-12-04T12:58:05;7.70;99.90
25410;DHT22;13339;50.840;4.346;2023-12-04T13:00:34;7.60;99.90
25410;DHT22;13339;50.840;4.346;2023-12-04T13:03:00;7.60;99.90
25410;DHT22;13339;50.840;4.346;2023-12-04T13:05:26;7.60;99.90
25410;DHT22;13339;50.840;4.346;2023-12-04T13:07:52;7.70;99.90
25410;DHT22;13339;50.840;4.346;2023-12-04T13:10:17;7.90;99.90
25410;DHT22;13339;50.840;4.346;2023-12-04T13:12:43;7.90;99.90
25410;DHT22;13339;50.840;4.346;2023-12-04T13:15:09;7.80;99.90
25410;DHT22;13339;50.840;4.346;2023-12-04T13:17:36;7.80;99.90
25410;DHT22;13339;50.840;4.346;2023-12-04T13:20:01;8.00;99.90
25410;DHT22;13339;50.840;4.346;2023-12-04T13:22:29;7.90;99.90
25410;DHT22;13339;50.840;4.346;2023-12-04T13:24:55;7.90;99.90
25410;DHT22;13339;50.840;4.346;2023-12-04T13:27:21;7.90;99.90
25410;DHT22;13339;50.840;4.346;2023-12-04T13:29:46;8.10;99.90
25410;DHT22;13339;50.840;4.346;2023-12-04T13:32:16;8.20;99.90
25410;DHT22;13339;50.840;4.346;2023-12-04T13:34:41;8.10;99.90
25410;DHT22;13339;50.840;4.346;2023-12-04T13:37:08;8.00;99.90
25410;DHT22;13339;50.840;4.346;2023-12-04T13:39:34;7.90;99.90
25410;DHT22;13339;50.840;4.346;2023-12-04T13:42:16;7.80;99.90
25410;DHT22;13339;50.840;4.346;2023-12-04T13:45:01;7.90;99.90
25410;DHT22;13339;50.840;4.346;2023-12-04T13:47:27;8.00;99.90
25410;DHT22;13339;50.840;4.346;2023-12-04T13:49:53;7.90;99.90
25410;DHT22;13339;50.840;4.346;2023-12-04T13:52:20;8.00;99.90
25410;DHT22;13339;50.840;4.346;2023-12-04T13:54:48;8.20;99.90
25410;DHT22;13339;50.840;4.346;2023-12-04T13:57:15;8.20;99.90
25410;DHT22;13339;50.840;4.346;2023-12-04T13:59:47;8.10;99.90
25410;DHT22;13339;50.840;4.346;2023-12-04T14:02:13;8.10;99.90
25410;DHT22;13339;50.840;4.346;2023-12-04T14:04:39;8.20;99.90
25410;DHT22;13339;50.840;4.346;2023-12-04T14:07:05;8.20;99.90
25410;DHT22;13339;50.840;4.346;2023-12-04T14:09:34;8.30;99.90
25410;DHT22;13339;50.840;4.346;2023-12-04T14:12:00;8.30;99.90
25410;DHT22;13339;50.840;4.346;2023-12-04T14:14:26;8.20;99.90
25410;DHT22;13339;50.840;4.346;2023-12-04T14:16:51;8.30;99.90
25410;DHT22;13339;50.840;4.346;2023-12-04T14:19:17;8.40;99.90
25410;DHT22;13339;50.840;4.346;2023-12-04T14:21:46;8.40;99.90
25410;DHT22;13339;50.840;4.346;2023-12-04T14:24:14;8.30;99.90
25410;DHT22;13339;50.840;4.346;2023-12-04T14:26:39;8.20;99.90
25410;DHT22;13339;50.840;4.346;2023-12-04T14:29:06;8.30;99.90
25410;DHT22;13339;50.840;4.346;2023-12-04T14:31:34;8.20;99.90
25410;DHT22;13339;50.840;4.346;2023-12-04T14:33:59;8.30;99.90
25410;DHT22;13339;50.840;4.346;2023-12-04T14:36:25;8.40;99.90
25410;DHT22;13339;50.840;4.346;2023-12-04T14:38:52;8.30;99.90
25410;DHT22;13339;50.840;4.346;2023-12-04T14:41:18;8.50;99.90
25410;DHT22;13339;50.840;4.346;2023-12-04T14:43:44;8.50;99.90
25410;DHT22;13339;50.840;4.346;2023-12-04T14:46:10;8.60;99.90
25410;DHT22;13339;50.840;4.346;2023-12-04T14:48:38;8.60;99.90
25410;DHT22;13339;50.840;4.346;2023-12-04T14:51:05;8.50;99.90
25410;DHT22;13339;50.840;4.346;2023-12-04T14:53:31;8.50;99.90
25410;DHT22;13339;50.840;4.346;2023-12-04T14:56:10;8.70;99.90
25410;DHT22;13339;50.840;4.346;2023-12-04T14:58:54;8.60;99.90
25410;DHT22;13339;50.840;4.346;2023-12-04T15:01:32;8.60;99.90
25410;DHT22;13339;50.840;4.346;2023-12-04T15:04:20;8.60;99.90
25410;DHT22;13339;50.840;4.346;2023-12-04T15:06:58;8.60;99.90
25410;DHT22;13339;50.840;4.346;2023-12-04T15:09:23;8.50;99.90
25410;DHT22;13339;50.840;4.346;2023-12-04T15:11:52;8.40;99.90
25410;DHT22;13339;50.840;4.346;2023-12-04T15:14:36;8.50;99.90
25410;DHT22;13339;50.840;4.346;2023-12-04T15:17:14;8.40;99.90
25410;DHT22;13339;50.840;4.346;2023-12-04T15:19:56;8.20;99.90
25410;DHT22;13339;50.840;4.346;2023-12-04T15:22:24;8.30;99.90
25410;DHT22;13339;50.840;4.346;2023-12-04T15:24:50;8.30;99.90
25410;DHT22;13339;50.840;4.346;2023-12-04T15:27:17;8.40;99.90
25410;DHT22;13339;50.840;4.346;2023-12-04T15:29:42;8.50;99.90
25410;DHT22;13339;50.840;4.346;2023-12-04T15:32:08;8.60;99.90
25410;DHT22;13339;50.840;4.346;2023-12-04T15:34:34;8.50;99.90
25410;DHT22;13339;50.840;4.346;2023-12-04T15:36:59;8.50;99.90
25410;DHT22;13339;50.840;4.346;2023-12-04T15:39:26;8.40;99.90
25410;DHT22;13339;50.840;4.346;2023-12-04T15:41:51;8.40;99.90
25410;DHT22;13339;50.840;4.346;2023-12-04T15:44:17;8.60;99.90
25410;DHT22;13339;50.840;4.346;2023-12-04T15:46:42;8.70;99.90
25410;DHT22;13339;50.840;4.346;2023-12-04T15:49:08;8.60;99.90
25410;DHT22;13339;50.840;4.346;2023-12-04T15:51:35;8.70;99.90